Terminal Aerodrome Forecast
Issued by NWS Jackson, KY

Home | Current Version | Previous Version | Text Only | Print | Product List | Glossary On
Versions: 1 2 3 4 5 6 7 8 9 10 11 12 13 14 15 16 17 18 19 20 21 22 23
000
FTUS43 KJKL 151741
TAFJKL
TAF
KJKL 151741Z 1518/1618 VRB05KT P6SM VCSH BKN007 OVC025
     FM152330 VRB04KT P6SM VCSH OVC015
     FM161400 VRB05KT P6SM VCSH SCT020 BKN040=

USA.gov is the U.S. government's official web portal to all federal, state and local government web resources and services.